createdAt,value
2019-06-20T00:00:19.489Z,1002.74
2019-06-20T00:01:19.511Z,1002.74
2019-06-20T00:02:19.468Z,1002.75
2019-06-20T00:03:19.454Z,1002.80
2019-06-20T00:04:19.443Z,1002.77
2019-06-20T00:05:19.432Z,1002.81
2019-06-20T00:06:19.451Z,1002.82
2019-06-20T00:07:19.411Z,1002.81
2019-06-20T00:08:19.398Z,1002.83
2019-06-20T00:09:19.386Z,1002.86
2019-06-20T00:10:19.382Z,1002.83
2019-06-20T00:11:19.398Z,1002.84
2019-06-20T00:12:19.355Z,1002.82
2019-06-20T00:13:19.345Z,1002.79
2019-06-20T00:14:19.334Z,1002.80
2019-06-20T00:15:19.330Z,1002.78
2019-06-20T00:16:19.341Z,1002.79
2019-06-20T00:17:19.297Z,1002.80
2019-06-20T00:18:19.298Z,1002.76
2019-06-20T00:19:19.281Z,1002.79
2019-06-20T00:20:19.272Z,1002.76
2019-06-20T00:21:19.253Z,1002.75
2019-06-20T00:22:19.270Z,1002.77
2019-06-20T00:23:19.235Z,1002.76
2019-06-20T00:24:19.222Z,1002.80
2019-06-20T00:25:19.210Z,1002.79
2019-06-20T00:26:19.196Z,1002.83
2019-06-20T00:27:19.221Z,1002.84
2019-06-20T00:28:19.172Z,1002.80
2019-06-20T00:29:19.161Z,1002.83
2019-06-20T00:30:19.150Z,1002.82
2019-06-20T00:31:19.145Z,1002.86
2019-06-20T00:32:19.157Z,1002.90
2019-06-20T00:33:19.119Z,1002.92
2019-06-20T00:34:19.113Z,1002.88
2019-06-20T00:35:19.096Z,1002.90
2019-06-20T00:36:19.197Z,1002.89
2019-06-20T00:37:19.103Z,1002.87
2019-06-20T00:38:19.060Z,1002.84
2019-06-20T00:39:19.048Z,1002.83
2019-06-20T00:40:19.040Z,1002.92
2019-06-20T00:41:19.024Z,1002.93
2019-06-20T00:42:19.045Z,1002.95
2019-06-20T00:43:19.007Z,1002.93
2019-06-20T00:44:18.992Z,1002.90
2019-06-20T00:45:18.979Z,1002.95
2019-06-20T00:46:19.005Z,1002.99
2019-06-20T00:47:18.989Z,1003.01
2019-06-20T00:48:18.958Z,1003.03
2019-06-20T00:49:18.933Z,1003.03
2019-06-20T00:50:18.959Z,1003.03
2019-06-20T00:51:18.914Z,1003.08
2019-06-20T00:52:18.932Z,1003.10
2019-06-20T00:53:18.889Z,1003.14
2019-06-20T00:54:18.880Z,1003.15
2019-06-20T00:55:18.894Z,1003.13
2019-06-20T00:56:18.859Z,1003.15
2019-06-20T00:57:18.876Z,1003.16
2019-06-20T00:58:18.833Z,1003.16
2019-06-20T00:59:18.823Z,1003.16
2019-06-20T01:00:18.815Z,1003.18
2019-06-20T01:01:18.799Z,1003.16
2019-06-20T01:02:18.819Z,1003.11
2019-06-20T01:03:18.779Z,1003.09
2019-06-20T01:04:18.766Z,1003.10
2019-06-20T01:05:18.761Z,1003.10
2019-06-20T01:06:18.745Z,1003.11
2019-06-20T01:07:18.760Z,1003.07
2019-06-20T01:08:18.719Z,1003.08
2019-06-20T01:09:18.707Z,1003.10
2019-06-20T01:10:18.720Z,1003.14
2019-06-20T01:11:18.687Z,1003.15
2019-06-20T01:12:18.707Z,1003.15
2019-06-20T01:13:32.666Z,1003.15
2019-06-20T01:14:19.649Z,1003.23
2019-06-20T01:15:18.643Z,1003.20
2019-06-20T01:16:18.650Z,1003.23
2019-06-20T01:17:18.639Z,1003.22
2019-06-20T01:18:18.641Z,1003.26
2019-06-20T01:19:18.615Z,1003.27
2019-06-20T01:20:18.585Z,1003.28
2019-06-20T01:21:18.576Z,1003.25
2019-06-20T01:22:18.564Z,1003.26
2019-06-20T01:23:18.579Z,1003.29
2019-06-20T01:24:18.541Z,1003.27
2019-06-20T01:25:18.528Z,1003.22
2019-06-20T01:26:18.519Z,1003.26
2019-06-20T01:27:18.504Z,1003.30
2019-06-20T01:28:18.527Z,1003.32
2019-06-20T01:29:18.484Z,1003.24
2019-06-20T01:30:18.470Z,1003.35
2019-06-20T01:31:18.459Z,1003.35
2019-06-20T01:32:18.448Z,1003.38
2019-06-20T01:33:18.470Z,1003.42
2019-06-20T01:34:18.426Z,1003.42
2019-06-20T01:35:18.430Z,1003.42
2019-06-20T01:36:18.410Z,1003.44
2019-06-20T01:37:18.393Z,1003.46
2019-06-20T01:38:18.410Z,1003.46
2019-06-20T01:39:18.369Z,1003.47
2019-06-20T01:40:18.363Z,1003.44
2019-06-20T01:41:18.346Z,1003.46
2019-06-20T01:42:18.338Z,1003.50
2019-06-20T01:43:18.354Z,1003.49
2019-06-20T01:44:18.313Z,1003.50
2019-06-20T01:45:18.323Z,1003.50
2019-06-20T01:46:18.297Z,1003.55
2019-06-20T01:47:18.278Z,1003.54
2019-06-20T01:48:18.298Z,1003.55
2019-06-20T01:49:18.256Z,1003.55
2019-06-20T01:50:18.244Z,1003.57
2019-06-20T01:51:18.245Z,1003.58
2019-06-20T01:52:18.227Z,1003.59
2019-06-20T01:53:18.255Z,1003.62
2019-06-20T01:54:18.200Z,1003.59
2019-06-20T01:55:18.194Z,1003.55
2019-06-20T01:56:18.176Z,1003.56
2019-06-20T01:57:18.167Z,1003.55
2019-06-20T01:58:18.189Z,1003.56
2019-06-20T01:59:18.144Z,1003.57
2019-06-20T02:00:18.134Z,1003.57
2019-06-20T02:01:18.123Z,1003.55
2019-06-20T02:02:18.109Z,1003.50
2019-06-20T02:03:18.103Z,1003.54
2019-06-20T02:04:18.122Z,1003.54
2019-06-20T02:05:18.389Z,1003.51
2019-06-20T02:06:18.068Z,1003.55
2019-06-20T02:07:18.052Z,1003.56
2019-06-20T02:08:18.076Z,1003.59
2019-06-20T02:09:18.042Z,1003.54
2019-06-20T02:10:18.022Z,1003.64
2019-06-20T02:11:18.011Z,1003.54
2019-06-20T02:12:18.015Z,1003.55
2019-06-20T02:13:17.986Z,1003.49
2019-06-20T02:14:18.006Z,1003.53
2019-06-20T02:15:17.968Z,1003.61
2019-06-20T02:16:17.950Z,1003.54
2019-06-20T02:17:17.942Z,1003.57
2019-06-20T02:18:17.930Z,1003.53
2019-06-20T02:19:17.945Z,1003.51
2019-06-20T02:20:17.910Z,1003.61
2019-06-20T02:21:17.894Z,1003.63
2019-06-20T02:22:17.882Z,1003.62
2019-06-20T02:23:17.872Z,1003.58
2019-06-20T02:24:17.892Z,1003.59
2019-06-20T02:25:17.855Z,1003.55
2019-06-20T02:26:17.837Z,1003.55
2019-06-20T02:27:17.826Z,1003.53
2019-06-20T02:28:17.817Z,1003.49
2019-06-20T02:29:17.877Z,1003.54
2019-06-20T02:30:17.792Z,1003.53
2019-06-20T02:31:17.783Z,1003.51
2019-06-20T02:32:17.771Z,1003.55
2019-06-20T02:33:17.759Z,1003.57
2019-06-20T02:34:17.777Z,1003.60
2019-06-20T02:35:17.740Z,1003.59
2019-06-20T02:36:17.725Z,1003.63
2019-06-20T02:37:17.720Z,1003.68
2019-06-20T02:38:17.708Z,1003.70
2019-06-20T02:39:17.725Z,1003.71
2019-06-20T02:40:17.688Z,1003.74
2019-06-20T02:41:17.667Z,1003.70
2019-06-20T02:42:17.661Z,1003.67
2019-06-20T02:43:17.653Z,1003.69
2019-06-20T02:44:29.904Z,1003.67
2019-06-20T02:45:18.625Z,1003.67
2019-06-20T02:46:17.613Z,1003.68
2019-06-20T02:47:17.603Z,1003.72
2019-06-20T02:48:17.592Z,1003.69
2019-06-20T02:49:17.613Z,1003.71
2019-06-20T02:50:17.566Z,1003.75
2019-06-20T02:51:17.561Z,1003.73
2019-06-20T02:52:17.546Z,1003.79
2019-06-20T02:53:17.542Z,1003.78
2019-06-20T02:54:17.554Z,1003.81
2019-06-20T02:55:17.518Z,1003.81
2019-06-20T02:56:17.502Z,1003.82
2019-06-20T02:57:17.487Z,1003.82
2019-06-20T02:58:17.476Z,1003.80
2019-06-20T02:59:17.498Z,1003.84
2019-06-20T03:00:17.455Z,1003.85
2019-06-20T03:01:17.444Z,1003.86
2019-06-20T03:02:17.432Z,1003.87
2019-06-20T03:03:17.420Z,1003.89
2019-06-20T03:04:17.411Z,1003.90
2019-06-20T03:05:17.435Z,1003.91
2019-06-20T03:06:17.385Z,1003.93
2019-06-20T03:07:17.375Z,1003.96
2019-06-20T03:08:17.369Z,1003.97
2019-06-20T03:09:17.357Z,1004.01
2019-06-20T03:10:17.374Z,1004.00
2019-06-20T03:11:17.329Z,1004.06
2019-06-20T03:12:17.317Z,1004.12
2019-06-20T03:13:17.309Z,1004.12
2019-06-20T03:14:17.299Z,1004.18
2019-06-20T03:15:17.316Z,1004.18
2019-06-20T03:16:17.273Z,1004.24
2019-06-20T03:17:17.261Z,1004.23
2019-06-20T03:18:17.249Z,1004.27
2019-06-20T03:19:17.244Z,1004.23
2019-06-20T03:20:17.260Z,1004.25
2019-06-20T03:21:17.221Z,1004.25
2019-06-20T03:22:17.208Z,1004.28
2019-06-20T03:23:17.199Z,1004.29
2019-06-20T03:24:17.184Z,1004.31
2019-06-20T03:25:17.202Z,1004.33
2019-06-20T03:26:17.170Z,1004.34
2019-06-20T03:27:17.151Z,1004.35
2019-06-20T03:28:17.138Z,1004.31
2019-06-20T03:29:17.130Z,1004.38
2019-06-20T03:30:17.146Z,1004.36
2019-06-20T03:31:17.122Z,1004.35
2019-06-20T03:32:17.099Z,1004.41
2019-06-20T03:33:17.085Z,1004.33
2019-06-20T03:34:17.072Z,1004.38
2019-06-20T03:35:17.092Z,1004.38
2019-06-20T03:36:17.047Z,1004.37
2019-06-20T03:37:17.040Z,1004.42
2019-06-20T03:38:17.023Z,1004.41
2019-06-20T03:39:17.013Z,1004.39
2019-06-20T03:40:17.036Z,1004.46
2019-06-20T03:41:16.995Z,1004.47
2019-06-20T03:42:16.984Z,1004.51
2019-06-20T03:43:16.968Z,1004.50
2019-06-20T03:44:16.959Z,1004.52
2019-06-20T03:45:16.976Z,1004.53
2019-06-20T03:46:16.942Z,1004.51
2019-06-20T03:47:16.923Z,1004.52
2019-06-20T03:48:16.912Z,1004.56
2019-06-20T03:49:16.903Z,1004.54
2019-06-20T03:50:16.920Z,1004.54
2019-06-20T03:51:16.885Z,1004.56
2019-06-20T03:52:16.866Z,1004.57
2019-06-20T03:53:16.857Z,1004.56
2019-06-20T03:54:16.844Z,1004.55
2019-06-20T03:55:16.863Z,1004.57
2019-06-20T03:56:16.823Z,1004.60
2019-06-20T03:57:16.810Z,1004.59
2019-06-20T03:58:16.799Z,1004.55
2019-06-20T03:59:16.790Z,1004.58
2019-06-20T04:00:16.778Z,1004.56
2019-06-20T04:01:16.797Z,1004.56
2019-06-20T04:02:16.766Z,1004.56
2019-06-20T04:03:16.742Z,1004.57
2019-06-20T04:04:16.733Z,1004.59
2019-06-20T04:05:16.724Z,1004.60
2019-06-20T04:06:16.741Z,1004.57
2019-06-20T04:07:16.697Z,1004.60
2019-06-20T04:08:16.686Z,1004.58
2019-06-20T04:09:16.677Z,1004.59
2019-06-20T04:10:16.666Z,1004.63
2019-06-20T04:11:16.683Z,1004.59
2019-06-20T04:12:16.640Z,1004.63
2019-06-20T04:13:16.629Z,1004.63
2019-06-20T04:14:16.617Z,1004.69
2019-06-20T04:15:19.470Z,1004.66
2019-06-20T04:16:16.625Z,1004.66
2019-06-20T04:17:16.584Z,1004.70
2019-06-20T04:18:16.576Z,1004.66
2019-06-20T04:19:16.564Z,1004.70
2019-06-20T04:20:16.555Z,1004.70
2019-06-20T04:21:16.571Z,1004.74
2019-06-20T04:22:16.527Z,1004.76
2019-06-20T04:23:16.518Z,1004.75
2019-06-20T04:24:16.505Z,1004.73
2019-06-20T04:25:16.498Z,1004.70
2019-06-20T04:26:16.514Z,1004.72
2019-06-20T04:27:16.478Z,1004.72
2019-06-20T04:28:16.459Z,1004.70
2019-06-20T04:29:16.452Z,1004.69
2019-06-20T04:30:16.450Z,1004.74
2019-06-20T04:31:16.459Z,1004.71
2019-06-20T04:32:16.417Z,1004.73
2019-06-20T04:33:16.407Z,1004.71
2019-06-20T04:34:16.393Z,1004.71
2019-06-20T04:35:16.385Z,1004.72
2019-06-20T04:36:16.402Z,1004.72
2019-06-20T04:37:16.358Z,1004.73
2019-06-20T04:38:16.346Z,1004.73
2019-06-20T04:39:19.499Z,1004.74
2019-06-20T04:40:16.349Z,1004.70
2019-06-20T04:41:16.348Z,1004.72
2019-06-20T04:42:18.624Z,1004.78
2019-06-20T04:43:16.294Z,1004.76
2019-06-20T04:44:16.283Z,1004.74
2019-06-20T04:45:16.269Z,1004.75
2019-06-20T04:46:16.304Z,1004.73
2019-06-20T04:47:16.268Z,1004.75
2019-06-20T04:48:16.233Z,1004.76
2019-06-20T04:49:19.665Z,1004.75
2019-06-20T04:50:16.216Z,1004.74
2019-06-20T04:51:16.227Z,1004.75
2019-06-20T04:52:16.219Z,1004.75
2019-06-20T04:53:16.182Z,1004.76
2019-06-20T04:54:16.170Z,1004.80
2019-06-20T04:55:16.157Z,1004.79
2019-06-20T04:56:16.145Z,1004.79
2019-06-20T04:57:16.164Z,1004.83
2019-06-20T04:58:16.126Z,1004.82
2019-06-20T04:59:16.117Z,1004.86
2019-06-20T05:00:16.180Z,1004.85
2019-06-20T05:01:16.089Z,1004.86
2019-06-20T05:02:16.108Z,1004.88
2019-06-20T05:03:16.082Z,1004.88
2019-06-20T05:04:16.054Z,1004.90
2019-06-20T05:05:16.042Z,1004.92
2019-06-20T05:06:16.033Z,1004.92
2019-06-20T05:07:16.050Z,1004.97
2019-06-20T05:08:16.011Z,1004.96
2019-06-20T05:09:16.004Z,1004.92
2019-06-20T05:10:15.987Z,1004.98
2019-06-20T05:11:15.975Z,1004.94
2019-06-20T05:12:15.995Z,1004.94
2019-06-20T05:13:15.956Z,1004.95
2019-06-20T05:14:15.941Z,1004.92
2019-06-20T05:15:15.933Z,1004.89
2019-06-20T05:16:15.925Z,1004.89
2019-06-20T05:17:15.940Z,1004.88
2019-06-20T05:18:15.899Z,1004.90
2019-06-20T05:19:15.894Z,1004.90
2019-06-20T05:20:15.876Z,1004.91
2019-06-20T05:21:15.863Z,1004.92
2019-06-20T05:22:15.864Z,1004.95
2019-06-20T05:23:15.871Z,1004.95
2019-06-20T05:24:15.887Z,1004.93
2019-06-20T05:25:15.816Z,1004.96
2019-06-20T05:26:15.820Z,1004.99
2019-06-20T05:27:15.833Z,1005.02
2019-06-20T05:28:15.814Z,1005.02
2019-06-20T05:29:15.772Z,1005.08
2019-06-20T05:30:15.765Z,1005.03
2019-06-20T05:31:15.749Z,1005.06
2019-06-20T05:32:15.742Z,1005.07
2019-06-20T05:33:15.762Z,1005.07
2019-06-20T05:34:15.735Z,1005.03
2019-06-20T05:35:15.708Z,1005.06
2019-06-20T05:36:15.697Z,1005.07
2019-06-20T05:37:15.682Z,1005.05
2019-06-20T05:38:15.706Z,1005.12
2019-06-20T05:39:15.659Z,1005.10
2019-06-20T05:40:15.654Z,1005.14
2019-06-20T05:41:15.636Z,1005.13
2019-06-20T05:42:15.631Z,1005.20
2019-06-20T05:43:15.658Z,1005.19
2019-06-20T05:44:15.609Z,1005.26
2019-06-20T05:45:15.594Z,1005.22
2019-06-20T05:46:15.582Z,1005.23
2019-06-20T05:47:15.568Z,1005.21
2019-06-20T05:48:15.592Z,1005.23
2019-06-20T05:49:15.548Z,1005.29
2019-06-20T05:50:15.535Z,1005.25
2019-06-20T05:51:15.524Z,1005.26
2019-06-20T05:52:15.511Z,1005.24
2019-06-20T05:53:15.535Z,1005.23
2019-06-20T05:54:15.492Z,1005.24
2019-06-20T05:55:15.481Z,1005.23
2019-06-20T05:56:15.471Z,1005.24
2019-06-20T05:57:15.455Z,1005.29
2019-06-20T05:58:15.558Z,1005.29
2019-06-20T05:59:15.437Z,1005.26
2019-06-20T06:00:15.425Z,1005.28
2019-06-20T06:01:15.412Z,1005.25
2019-06-20T06:02:15.421Z,1005.27
2019-06-20T06:03:16.011Z,1005.28
2019-06-20T06:04:15.377Z,1005.29
2019-06-20T06:05:15.364Z,1005.31
2019-06-20T06:06:15.356Z,1005.32
2019-06-20T06:07:15.341Z,1005.31
2019-06-20T06:08:16.429Z,1005.36
2019-06-20T06:09:15.323Z,1005.36
2019-06-20T06:10:15.314Z,1005.39
2019-06-20T06:11:15.298Z,1005.36
2019-06-20T06:12:15.291Z,1005.39
2019-06-20T06:13:15.307Z,1005.39
2019-06-20T06:14:15.262Z,1005.43
2019-06-20T06:15:15.257Z,1005.43
2019-06-20T06:16:25.602Z,1005.41
2019-06-20T06:17:16.228Z,1005.48
2019-06-20T06:18:15.221Z,1005.41
2019-06-20T06:19:15.243Z,1005.41
2019-06-20T06:20:15.195Z,1005.41
2019-06-20T06:21:15.186Z,1005.42
2019-06-20T06:22:15.186Z,1005.43
2019-06-20T06:23:15.170Z,1005.39
2019-06-20T06:24:15.186Z,1005.39
2019-06-20T06:25:15.138Z,1005.38
2019-06-20T06:26:15.136Z,1005.38
2019-06-20T06:27:15.116Z,1005.38
2019-06-20T06:28:15.107Z,1005.41
2019-06-20T06:29:15.123Z,1005.39
2019-06-20T06:30:15.082Z,1005.45
2019-06-20T06:31:15.075Z,1005.45
2019-06-20T06:32:15.060Z,1005.42
2019-06-20T06:33:15.049Z,1005.39
2019-06-20T06:34:15.068Z,1005.44
2019-06-20T06:35:15.025Z,1005.41
2019-06-20T06:36:15.016Z,1005.38
2019-06-20T06:37:15.003Z,1005.39
2019-06-20T06:38:14.998Z,1005.40
2019-06-20T06:39:15.017Z,1005.42
2019-06-20T06:40:14.980Z,1005.42
2019-06-20T06:41:14.960Z,1005.40
2019-06-20T06:42:14.951Z,1005.41
2019-06-20T06:43:14.937Z,1005.38
2019-06-20T06:44:14.954Z,1005.39
2019-06-20T06:45:14.918Z,1005.41
2019-06-20T06:46:14.904Z,1005.40
2019-06-20T06:47:14.891Z,1005.42
2019-06-20T06:48:14.879Z,1005.44
2019-06-20T06:49:14.898Z,1005.43
2019-06-20T06:50:14.860Z,1005.46
2019-06-20T06:51:14.856Z,1005.48
2019-06-20T06:52:14.847Z,1005.46
2019-06-20T06:53:14.821Z,1005.47
2019-06-20T06:54:14.844Z,1005.47
2019-06-20T06:55:14.801Z,1005.46
2019-06-20T06:56:14.788Z,1005.45
2019-06-20T06:57:14.777Z,1005.43
2019-06-20T06:58:14.764Z,1005.42
2019-06-20T06:59:14.783Z,1005.43
2019-06-20T07:00:14.767Z,1005.46
2019-06-20T07:01:14.753Z,1005.45
2019-06-20T07:02:14.719Z,1005.46
2019-06-20T07:03:14.707Z,1005.49
2019-06-20T07:04:14.727Z,1005.53
2019-06-20T07:05:14.690Z,1005.47
2019-06-20T07:06:14.681Z,1005.45
2019-06-20T07:07:14.667Z,1005.50
2019-06-20T07:08:14.651Z,1005.49
2019-06-20T07:09:14.645Z,1005.56
2019-06-20T07:10:14.661Z,1005.54
2019-06-20T07:11:14.620Z,1005.60
2019-06-20T07:12:14.610Z,1005.58
2019-06-20T07:13:14.603Z,1005.57
2019-06-20T07:14:14.612Z,1005.53
2019-06-20T07:15:14.604Z,1005.52
2019-06-20T07:16:14.561Z,1005.52
2019-06-20T07:17:14.555Z,1005.53
2019-06-20T07:18:14.537Z,1005.53
2019-06-20T07:19:14.529Z,1005.52
2019-06-20T07:20:15.392Z,1005.57
2019-06-20T07:21:14.512Z,1005.54
2019-06-20T07:22:14.508Z,1005.54
2019-06-20T07:23:14.482Z,1005.53
2019-06-20T07:24:14.472Z,1005.60
2019-06-20T07:25:14.495Z,1005.49
2019-06-20T07:26:14.446Z,1005.49
2019-06-20T07:27:14.437Z,1005.51
2019-06-20T07:28:14.428Z,1005.46
2019-06-20T07:29:14.414Z,1005.49
2019-06-20T07:30:14.433Z,1005.49
2019-06-20T07:31:14.395Z,1005.46
2019-06-20T07:32:14.380Z,1005.44
2019-06-20T07:33:14.381Z,1005.45
2019-06-20T07:34:14.362Z,1005.46
2019-06-20T07:35:14.376Z,1005.44
2019-06-20T07:36:14.337Z,1005.48
2019-06-20T07:37:14.326Z,1005.45
2019-06-20T07:38:14.311Z,1005.43
2019-06-20T07:39:14.303Z,1005.39
2019-06-20T07:40:14.321Z,1005.39
2019-06-20T07:41:14.281Z,1005.38
2019-06-20T07:42:14.270Z,1005.43
2019-06-20T07:43:14.262Z,1005.41
2019-06-20T07:44:14.245Z,1005.41
2019-06-20T07:45:14.265Z,1005.38
2019-06-20T07:46:14.222Z,1005.39
2019-06-20T07:47:17.895Z,1005.41
2019-06-20T07:48:14.200Z,1005.39
2019-06-20T07:49:14.189Z,1005.41
2019-06-20T07:50:14.213Z,1005.42
2019-06-20T07:51:14.180Z,1005.41
2019-06-20T07:52:14.160Z,1005.46
2019-06-20T07:53:14.143Z,1005.39
2019-06-20T07:54:14.132Z,1005.39
2019-06-20T07:55:14.152Z,1005.34
2019-06-20T07:56:14.113Z,1005.38
2019-06-20T07:57:14.099Z,1005.38
2019-06-20T07:58:14.093Z,1005.35
2019-06-20T07:59:14.076Z,1005.38
2019-06-20T08:00:14.096Z,1005.40
2019-06-20T08:01:14.059Z,1005.40
2019-06-20T08:02:14.058Z,1005.38
2019-06-20T08:03:14.040Z,1005.35
2019-06-20T08:04:14.020Z,1005.37
2019-06-20T08:05:14.012Z,1005.32
2019-06-20T08:06:14.031Z,1005.36
2019-06-20T08:07:14.025Z,1005.43
2019-06-20T08:08:13.975Z,1005.41
2019-06-20T08:09:13.971Z,1005.43
2019-06-20T08:10:13.957Z,1005.39
2019-06-20T08:11:13.973Z,1005.39
2019-06-20T08:12:13.930Z,1005.41
2019-06-20T08:13:13.923Z,1005.43
2019-06-20T08:14:13.912Z,1005.41
2019-06-20T08:15:15.651Z,1005.39
2019-06-20T08:16:13.918Z,1005.35
2019-06-20T08:17:13.875Z,1005.35
2019-06-20T08:18:13.866Z,1005.40
2019-06-20T08:19:13.854Z,1005.37
2019-06-20T08:20:13.841Z,1005.37
2019-06-20T08:21:13.863Z,1005.34
2019-06-20T08:22:13.859Z,1005.40
2019-06-20T08:23:13.813Z,1005.38
2019-06-20T08:24:13.796Z,1005.38
2019-06-20T08:25:13.811Z,1005.39
2019-06-20T08:26:13.807Z,1005.38
2019-06-20T08:27:15.000Z,1005.37
2019-06-20T08:28:13.755Z,1005.47
2019-06-20T08:29:20.730Z,1005.45
2019-06-20T08:30:14.726Z,1005.41
2019-06-20T08:31:13.752Z,1005.42
2019-06-20T08:32:13.707Z,1005.42
2019-06-20T08:33:13.701Z,1005.42
2019-06-20T08:34:13.709Z,1005.47
2019-06-20T08:35:13.674Z,1005.45
2019-06-20T08:36:13.709Z,1005.48
2019-06-20T08:37:13.658Z,1005.47
2019-06-20T08:38:13.642Z,1005.46
2019-06-20T08:39:13.648Z,1005.47
2019-06-20T08:40:13.620Z,1005.44
2019-06-20T08:41:13.636Z,1005.48
2019-06-20T08:42:13.602Z,1005.47
2019-06-20T08:43:13.586Z,1005.50
2019-06-20T08:44:13.573Z,1005.57
2019-06-20T08:45:13.563Z,1005.47
2019-06-20T08:46:13.595Z,1005.52
2019-06-20T08:47:13.541Z,1005.48
2019-06-20T08:48:13.528Z,1005.50
2019-06-20T08:49:13.519Z,1005.50
2019-06-20T08:50:13.505Z,1005.43
2019-06-20T08:51:14.649Z,1005.45
2019-06-20T08:52:13.486Z,1005.47
2019-06-20T08:53:13.490Z,1005.50
2019-06-20T08:54:13.467Z,1005.56
2019-06-20T08:55:13.450Z,1005.52
2019-06-20T08:56:13.467Z,1005.52
2019-06-20T08:57:13.431Z,1005.53
2019-06-20T08:58:13.417Z,1005.48
2019-06-20T08:59:23.818Z,1005.47
2019-06-20T09:00:14.402Z,1005.49
2019-06-20T09:01:13.413Z,1005.44
2019-06-20T09:02:13.420Z,1005.44
2019-06-20T09:03:13.361Z,1005.48
2019-06-20T09:04:13.348Z,1005.43
2019-06-20T09:05:13.340Z,1005.40
2019-06-20T09:06:13.327Z,1005.35
2019-06-20T09:07:13.348Z,1005.30
2019-06-20T09:08:13.304Z,1005.32
2019-06-20T09:09:13.292Z,1005.36
2019-06-20T09:10:13.360Z,1005.36
2019-06-20T09:11:13.269Z,1005.34
2019-06-20T09:12:13.292Z,1005.39
2019-06-20T09:13:13.246Z,1005.38
2019-06-20T09:14:13.236Z,1005.39
2019-06-20T09:15:13.230Z,1005.40
2019-06-20T09:16:24.271Z,1005.35
2019-06-20T09:17:14.229Z,1005.40
2019-06-20T09:18:13.253Z,1005.41
2019-06-20T09:19:13.178Z,1005.43
2019-06-20T09:20:13.167Z,1005.33
2019-06-20T09:21:13.158Z,1005.38
2019-06-20T09:22:13.173Z,1005.38
2019-06-20T09:23:13.137Z,1005.44
2019-06-20T09:24:13.134Z,1005.48
2019-06-20T09:25:13.112Z,1005.40
2019-06-20T09:26:13.104Z,1005.39
2019-06-20T09:27:13.119Z,1005.47
2019-06-20T09:28:13.076Z,1005.41
2019-06-20T09:29:13.070Z,1005.41
2019-06-20T09:30:13.063Z,1005.38
2019-06-20T09:31:13.043Z,1005.44
2019-06-20T09:32:13.066Z,1005.45
2019-06-20T09:33:13.023Z,1005.42
2019-06-20T09:34:13.010Z,1005.42
2019-06-20T09:35:13.006Z,1005.45
2019-06-20T09:36:12.987Z,1005.40
2019-06-20T09:37:13.010Z,1005.45
2019-06-20T09:38:12.970Z,1005.46
2019-06-20T09:39:12.956Z,1005.48
2019-06-20T09:40:12.945Z,1005.51
2019-06-20T09:41:12.934Z,1005.47
2019-06-20T09:42:12.952Z,1005.47
2019-06-20T09:43:26.798Z,1005.46
2019-06-20T09:44:13.902Z,1005.45
2019-06-20T09:45:12.887Z,1005.45
2019-06-20T09:46:12.881Z,1005.50
2019-06-20T09:47:12.897Z,1005.49
2019-06-20T09:48:12.856Z,1005.48
2019-06-20T09:49:12.849Z,1005.50
2019-06-20T09:50:12.832Z,1005.48
2019-06-20T09:51:12.821Z,1005.47
2019-06-20T09:52:12.842Z,1005.44
2019-06-20T09:53:12.817Z,1005.47
2019-06-20T09:54:12.786Z,1005.46
2019-06-20T09:55:12.776Z,1005.52
2019-06-20T09:56:12.766Z,1005.50
2019-06-20T09:57:12.757Z,1005.53
2019-06-20T09:58:12.772Z,1005.50
2019-06-20T09:59:26.844Z,1005.54
2019-06-20T10:00:13.723Z,1005.57
2019-06-20T10:01:12.708Z,1005.49
2019-06-20T10:02:12.696Z,1005.62
2019-06-20T10:03:12.740Z,1005.55
2019-06-20T10:04:12.678Z,1005.55
2019-06-20T10:05:12.665Z,1005.51
2019-06-20T10:06:14.357Z,1005.51
2019-06-20T10:07:12.645Z,1005.50
2019-06-20T10:08:12.674Z,1005.46
2019-06-20T10:09:12.621Z,1005.47
2019-06-20T10:10:12.610Z,1005.50
2019-06-20T10:11:12.597Z,1005.45
2019-06-20T10:12:12.585Z,1005.52
2019-06-20T10:13:12.613Z,1005.50
2019-06-20T10:14:12.562Z,1005.58
2019-06-20T10:15:12.550Z,1005.55
2019-06-20T10:16:12.542Z,1005.66
2019-06-20T10:17:12.535Z,1005.58
2019-06-20T10:18:12.551Z,1005.62
2019-06-20T10:19:13.432Z,1005.61
2019-06-20T10:20:12.496Z,1005.67
2019-06-20T10:21:12.485Z,1005.67
2019-06-20T10:22:12.482Z,1005.64
2019-06-20T10:23:12.495Z,1005.60
2019-06-20T10:24:12.456Z,1005.62
2019-06-20T10:25:12.443Z,1005.62
2019-06-20T10:26:12.429Z,1005.64
2019-06-20T10:27:12.421Z,1005.61
2019-06-20T10:28:12.437Z,1005.56
2019-06-20T10:29:12.396Z,1005.61
2019-06-20T10:30:14.584Z,1005.62
2019-06-20T10:31:12.382Z,1005.64
2019-06-20T10:32:12.365Z,1005.62
2019-06-20T10:33:12.381Z,1005.60
2019-06-20T10:34:12.339Z,1005.57
2019-06-20T10:35:12.332Z,1005.64
2019-06-20T10:36:12.320Z,1005.60
2019-06-20T10:37:12.308Z,1005.61
2019-06-20T10:38:12.331Z,1005.57
2019-06-20T10:39:12.296Z,1005.57
2019-06-20T10:40:12.278Z,1005.50
2019-06-20T10:41:12.264Z,1005.53
2019-06-20T10:42:12.250Z,1005.61
2019-06-20T10:43:12.272Z,1005.53
2019-06-20T10:44:12.228Z,1005.56
2019-06-20T10:45:12.224Z,1005.58
2019-06-20T10:46:12.217Z,1005.57
2019-06-20T10:47:12.202Z,1005.58
2019-06-20T10:48:12.186Z,1005.64
2019-06-20T10:49:12.207Z,1005.55
2019-06-20T10:50:12.161Z,1005.60
2019-06-20T10:51:12.153Z,1005.55
2019-06-20T10:52:12.143Z,1005.59
2019-06-20T10:53:12.139Z,1005.59
2019-06-20T10:54:12.154Z,1005.62
2019-06-20T10:55:12.105Z,1005.63
2019-06-20T10:56:12.110Z,1005.58
2019-06-20T10:57:12.084Z,1005.53
2019-06-20T10:58:12.076Z,1005.66
2019-06-20T10:59:12.094Z,1005.59
2019-06-20T11:00:12.054Z,1005.59
2019-06-20T11:01:12.043Z,1005.58
2019-06-20T11:02:12.032Z,1005.66
2019-06-20T11:03:12.024Z,1005.57
2019-06-20T11:04:12.044Z,1005.56
2019-06-20T11:05:12.004Z,1005.55
2019-06-20T11:06:11.982Z,1005.53
2019-06-20T11:07:11.990Z,1005.52
2019-06-20T11:08:11.962Z,1005.53
2019-06-20T11:09:11.986Z,1005.49
2019-06-20T11:10:11.940Z,1005.44
2019-06-20T11:11:13.519Z,1005.47
2019-06-20T11:12:11.924Z,1005.36
2019-06-20T11:13:11.907Z,1005.39
2019-06-20T11:14:11.924Z,1005.40
2019-06-20T11:15:11.899Z,1005.40
2019-06-20T11:16:11.871Z,1005.38
2019-06-20T11:17:11.865Z,1005.41
2019-06-20T11:18:11.847Z,1005.41
2019-06-20T11:19:11.871Z,1005.39
2019-06-20T11:20:11.829Z,1005.44
2019-06-20T11:21:11.814Z,1005.39
2019-06-20T11:22:11.824Z,1005.37
2019-06-20T11:23:11.797Z,1005.36
2019-06-20T11:24:11.817Z,1005.38
2019-06-20T11:25:11.771Z,1005.36
2019-06-20T11:26:11.761Z,1005.38
2019-06-20T11:27:11.751Z,1005.27
2019-06-20T11:28:11.735Z,1005.25
2019-06-20T11:29:11.755Z,1005.44
2019-06-20T11:30:11.716Z,1005.38
2019-06-20T11:31:11.702Z,1005.37
2019-06-20T11:32:11.713Z,1005.34
2019-06-20T11:33:11.678Z,1005.34
2019-06-20T11:34:11.674Z,1005.34
2019-06-20T11:35:11.689Z,1005.35
2019-06-20T11:36:11.646Z,1005.31
2019-06-20T11:37:11.634Z,1005.35
2019-06-20T11:38:11.626Z,1005.33
2019-06-20T11:39:11.617Z,1005.34
2019-06-20T11:40:11.647Z,1005.33
2019-06-20T11:41:11.593Z,1005.35
2019-06-20T11:42:11.579Z,1005.38
2019-06-20T11:43:11.570Z,1005.35
2019-06-20T11:44:11.561Z,1005.34
2019-06-20T11:45:11.576Z,1005.34
2019-06-20T11:46:11.532Z,1005.39
2019-06-20T11:47:11.523Z,1005.39
2019-06-20T11:48:11.514Z,1005.37
2019-06-20T11:49:11.502Z,1005.37
2019-06-20T11:50:11.522Z,1005.40
2019-06-20T11:51:11.486Z,1005.38
2019-06-20T11:52:11.472Z,1005.34
2019-06-20T11:53:11.457Z,1005.39
2019-06-20T11:54:11.484Z,1005.42
2019-06-20T11:55:11.465Z,1005.45
2019-06-20T11:56:11.428Z,1005.37
2019-06-20T11:57:11.414Z,1005.42
2019-06-20T11:58:11.421Z,1005.47
2019-06-20T11:59:11.391Z,1005.49
2019-06-20T12:00:11.409Z,1005.45
2019-06-20T12:01:11.374Z,1005.47
2019-06-20T12:02:11.355Z,1005.49
2019-06-20T12:03:11.343Z,1005.47
2019-06-20T12:04:11.336Z,1005.48
2019-06-20T12:05:11.352Z,1005.44